This is the latest recevied weather packets stored in our database for station/object WX6HNX-4. If no packets are shown the sender has not sent any weather packets the latest 10 day(s).
| Time | Temp. | Humidity | Pressure | Rain* | Wind** | Luminosity | Snow |
|---|---|---|---|---|---|---|---|
| 1777624120 | 17.22° C | 52% | 1004.9 hPa | 0 mm | - | - | - |
| 1777621688 | 18.33° C | 50% | 1004.8 hPa | 0 mm | - | - | - |
| 1777619587 | 17.22° C | 53% | 1004.6 hPa | 0 mm | - | - | - |
| 1777615030 | 18.33° C | 48% | 1004.1 hPa | 0 mm | - | - | - |
| 1777611692 | 18.89° C | 45% | 1003.8 hPa | 0 mm | - | - | - |
| 1777610792 | 18.89° C | 45% | 1003.7 hPa | 0 mm | - | - | - |
| 1777400008 | 16.11° C | 58% | 1010.5 hPa | 0 mm | - | - | - |
| 1777398808 | 16.11° C | 59% | 1010.6 hPa | 0 mm | - | - | - |
| 1777398208 | 15° C | 61% | 1010.8 hPa | 0 mm | - | - | - |
| 1777397717 | 14.44° C | 63% | 1010.8 hPa | 0 mm | - | - | - |
| 1777396816 | 14.44° C | 63% | 1010.9 hPa | 0 mm | - | - | - |
| 1777394716 | 13.89° C | 65% | 1011.1 hPa | 0 mm | - | - | - |
| 1777394017 | 13.89° C | 65% | 1011.1 hPa | 0 mm | - | - | - |
| 1777393117 | 13.89° C | 65% | 1011.3 hPa | 0 mm | - | - | - |
| 1777392817 | 13.33° C | 66% | 1011.4 hPa | 0 mm | - | - | - |
| 1777391917 | 12.78° C | 65% | 1011.3 hPa | 0 mm | - | - | - |
| 1777391361 | 12.78° C | 65% | 1011.3 hPa | 0 mm | - | - | - |
| 1777389861 | 12.22° C | 66% | 1011.3 hPa | 0 mm | - | - | - |
| 1777389261 | 12.22° C | 66% | 1011.4 hPa | 0 mm | - | - | - |
| 1777387761 | 12.22° C | 64% | 1011.2 hPa | 0 mm | - | - | - |
| 1777387461 | 11.67° C | 65% | 1011 hPa | 0 mm | - | - | - |
| 1777384307 | 8.33° C | 81% | 1010.6 hPa | 0 mm | - | - | - |
| 1777382507 | 5.56° C | 81% | 1010.1 hPa | 0 mm | - | - | - |
| 1777382206 | 6.11° C | 80% | 1010 hPa | 0 mm | - | - | - |
| 1777381906 | 6.11° C | 78% | 1010 hPa | 0 mm | - | - | - |
* Rain latest hour (hover to see other rain measurements)
** Current wind speed in m/s (hover to see current wind gust speed)